createdAt,value
2022-12-03T00:00:12.761Z,8.25
2022-12-03T00:02:41.962Z,6.10
2022-12-03T00:05:11.637Z,7.93
2022-12-03T00:07:41.435Z,8.75
2022-12-03T00:10:10.774Z,6.85
2022-12-03T00:12:39.394Z,7.78
2022-12-03T00:15:11.103Z,6.88
2022-12-03T00:17:40.244Z,8.55
2022-12-03T00:20:10.655Z,8.90
2022-12-03T00:22:40.415Z,6.90
2022-12-03T00:25:10.606Z,7.38
2022-12-03T00:27:38.996Z,7.20
2022-12-03T00:30:09.959Z,6.33
2022-12-03T00:32:38.324Z,6.78
2022-12-03T00:35:09.709Z,7.50
2022-12-03T00:37:38.083Z,7.30
2022-12-03T00:40:10.043Z,7.45
2022-12-03T00:42:38.383Z,6.22
2022-12-03T00:45:08.327Z,10.57
2022-12-03T00:47:36.710Z,8.13
2022-12-03T00:50:06.049Z,7.43
2022-12-03T00:52:34.433Z,7.47
2022-12-03T00:55:02.770Z,9.93
2022-12-03T00:57:32.479Z,9.95
2022-12-03T01:00:00.904Z,6.03
2022-12-03T01:02:29.301Z,7.30
2022-12-03T01:04:57.928Z,9.40
2022-12-03T01:07:26.493Z,7.50
2022-12-03T01:09:54.901Z,7.60
2022-12-03T01:12:23.385Z,7.18
2022-12-03T01:14:53.529Z,6.78
2022-12-03T01:17:22.277Z,8.48
2022-12-03T01:19:52.530Z,11.30
2022-12-03T01:22:20.899Z,9.55
2022-12-03T01:24:49.206Z,9.65
2022-12-03T01:27:17.630Z,11.40
2022-12-03T01:29:46.193Z,7.50
2022-12-03T01:32:19.358Z,8.30
2022-12-03T01:34:49.458Z,8.20
2022-12-03T01:37:19.168Z,9.30
2022-12-03T01:39:48.030Z,8.45
2022-12-03T01:42:21.174Z,13.18
2022-12-03T01:44:59.561Z,7.88
2022-12-03T01:47:33.153Z,11.18
2022-12-03T01:50:05.344Z,10.85
2022-12-03T01:52:39.686Z,8.27
2022-12-03T01:55:14.872Z,7.72
2022-12-03T01:57:46.996Z,6.60
2022-12-03T02:00:17.449Z,6.80
2022-12-03T02:02:56.536Z,11.98
2022-12-03T02:05:27.959Z,7.35
2022-12-03T02:07:57.036Z,9.25
2022-12-03T02:10:29.716Z,8.85
2022-12-03T02:13:03.620Z,7.47
2022-12-03T02:15:32.388Z,9.20
2022-12-03T02:18:02.755Z,11.05
2022-12-03T02:20:34.263Z,7.05
2022-12-03T02:23:11.481Z,7.55
2022-12-03T02:25:41.360Z,8.20
2022-12-03T02:28:10.842Z,6.88
2022-12-03T02:30:39.491Z,11.05
2022-12-03T02:33:07.829Z,6.95
2022-12-03T02:35:38.348Z,7.97
2022-12-03T02:38:14.606Z,6.05
2022-12-03T02:40:46.924Z,8.98
2022-12-03T02:43:16.721Z,7.32
2022-12-03T02:45:47.643Z,8.52
2022-12-03T02:48:20.826Z,9.20
2022-12-03T02:50:53.344Z,5.47
2022-12-03T02:53:27.281Z,5.95
2022-12-03T02:55:59.370Z,6.90
2022-12-03T02:58:30.727Z,7.15
2022-12-03T03:01:01.065Z,6.43
2022-12-03T03:03:32.226Z,8.60
2022-12-03T03:06:02.962Z,6.80
2022-12-03T03:08:32.806Z,6.78
2022-12-03T03:11:03.584Z,6.00
2022-12-03T03:13:33.637Z,8.02
2022-12-03T03:16:04.266Z,7.07
2022-12-03T03:18:33.347Z,7.32
2022-12-03T03:21:02.446Z,7.13
2022-12-03T03:23:30.839Z,9.32
2022-12-03T03:26:04.542Z,9.73
2022-12-03T03:28:35.689Z,7.00
2022-12-03T03:31:06.248Z,8.70
2022-12-03T03:33:35.589Z,7.18
2022-12-03T03:36:04.385Z,7.57
2022-12-03T03:38:33.827Z,6.97
2022-12-03T03:41:05.469Z,6.85
2022-12-03T03:43:35.848Z,6.30
2022-12-03T03:46:06.721Z,7.30
2022-12-03T03:48:36.094Z,6.75
2022-12-03T03:51:09.003Z,5.85
2022-12-03T03:53:38.861Z,6.40
2022-12-03T03:56:09.768Z,7.85
2022-12-03T03:58:38.892Z,6.78
2022-12-03T04:01:07.813Z,6.78
2022-12-03T04:03:36.489Z,7.65
2022-12-03T04:06:05.296Z,6.35
2022-12-03T04:08:33.833Z,7.78
2022-12-03T04:11:19.418Z,7.68
2022-12-03T04:13:49.273Z,8.13
2022-12-03T04:16:17.730Z,6.18
2022-12-03T04:18:45.153Z,8.85
2022-12-03T04:21:33.704Z,7.85
2022-12-03T04:24:02.628Z,7.63
2022-12-03T04:26:48.414Z,8.75
2022-12-03T04:29:18.227Z,9.07
2022-12-03T04:32:03.920Z,9.63
2022-12-03T04:34:49.819Z,8.27
2022-12-03T04:37:18.287Z,8.43
2022-12-03T04:39:46.693Z,6.20
2022-12-03T04:42:15.135Z,10.68
2022-12-03T04:44:44.917Z,6.20
2022-12-03T04:47:16.436Z,7.25
2022-12-03T04:49:47.481Z,10.43
2022-12-03T04:52:18.499Z,7.22
2022-12-03T04:54:47.616Z,11.07
2022-12-03T04:57:16.023Z,8.18
2022-12-03T04:59:45.716Z,7.13
2022-12-03T05:02:14.248Z,8.50
2022-12-03T05:04:42.618Z,7.15
2022-12-03T05:07:10.994Z,9.45
2022-12-03T05:09:39.346Z,8.23
2022-12-03T05:12:08.227Z,8.20
2022-12-03T05:14:36.619Z,9.30
2022-12-03T05:17:06.468Z,8.75
2022-12-03T05:19:52.548Z,10.38
2022-12-03T05:22:21.020Z,8.30
2022-12-03T05:24:49.380Z,9.60
2022-12-03T05:27:23.365Z,9.07
2022-12-03T05:29:52.577Z,10.07
2022-12-03T05:32:22.456Z,9.45
2022-12-03T05:34:51.341Z,9.50
2022-12-03T05:37:19.980Z,7.32
2022-12-03T05:39:48.314Z,8.20
2022-12-03T05:42:34.012Z,6.53
2022-12-03T05:45:02.523Z,8.18
2022-12-03T05:47:32.229Z,9.88
2022-12-03T05:50:00.564Z,9.15
2022-12-03T05:52:28.980Z,8.48
2022-12-03T05:54:57.335Z,8.50
2022-12-03T05:57:25.777Z,7.88
2022-12-03T05:59:54.155Z,9.93
2022-12-03T06:02:22.740Z,9.80
2022-12-03T06:04:52.805Z,9.73
2022-12-03T06:07:21.403Z,8.02
2022-12-03T06:09:49.762Z,8.23
2022-12-03T06:12:18.159Z,8.77
2022-12-03T06:14:46.573Z,6.88
2022-12-03T06:17:15.064Z,9.27
2022-12-03T06:19:43.442Z,10.18
2022-12-03T06:22:13.217Z,12.15
2022-12-03T06:24:41.614Z,10.20
2022-12-03T06:27:09.975Z,10.07
2022-12-03T06:29:38.548Z,9.23
2022-12-03T06:32:07.873Z,9.95
2022-12-03T06:34:36.493Z,9.50
2022-12-03T06:37:04.907Z,8.88
2022-12-03T06:39:34.662Z,13.50
2022-12-03T06:42:03.067Z,9.38
2022-12-03T06:44:31.442Z,8.35
2022-12-03T06:46:59.862Z,8.10
2022-12-03T06:49:28.328Z,9.57
2022-12-03T06:51:57.067Z,9.00
2022-12-03T06:54:25.535Z,11.07
2022-12-03T06:56:55.224Z,11.07
2022-12-03T06:59:23.625Z,11.05
2022-12-03T07:01:52.034Z,10.00
2022-12-03T07:04:20.493Z,9.20
2022-12-03T07:06:48.869Z,11.30
2022-12-03T07:09:17.724Z,16.67
2022-12-03T07:11:46.117Z,8.82
2022-12-03T07:14:16.017Z,12.13
2022-12-03T07:16:44.470Z,10.50
2022-12-03T07:19:13.056Z,10.45
2022-12-03T07:21:41.483Z,13.27
2022-12-03T07:24:10.235Z,10.27
2022-12-03T07:26:38.656Z,9.98
2022-12-03T07:29:07.044Z,15.30
2022-12-03T07:31:36.857Z,12.70
2022-12-03T07:34:05.343Z,16.20
2022-12-03T07:36:33.731Z,11.73
2022-12-03T07:39:02.056Z,10.93
2022-12-03T07:41:30.439Z,12.38
2022-12-03T07:43:58.815Z,13.15
2022-12-03T07:46:27.321Z,9.88
2022-12-03T07:48:57.078Z,10.25
2022-12-03T07:51:31.824Z,10.98
2022-12-03T07:54:00.709Z,11.43
2022-12-03T07:56:29.059Z,10.38
2022-12-03T07:58:57.503Z,10.75
2022-12-03T08:01:25.948Z,14.27
2022-12-03T08:03:54.402Z,10.23
2022-12-03T08:06:24.067Z,10.63
2022-12-03T08:08:52.471Z,10.02
2022-12-03T08:11:20.872Z,11.50
2022-12-03T08:13:49.387Z,10.77
2022-12-03T08:16:21.164Z,11.00
2022-12-03T08:18:51.408Z,10.13
2022-12-03T08:21:22.163Z,10.23
2022-12-03T08:23:51.914Z,10.85
2022-12-03T08:26:25.848Z,9.82
2022-12-03T08:28:55.007Z,11.00
2022-12-03T08:31:32.436Z,10.10
2022-12-03T08:34:17.788Z,12.40
2022-12-03T08:36:47.287Z,11.45
2022-12-03T08:39:34.958Z,10.52
2022-12-03T08:42:30.726Z,11.23
2022-12-03T08:45:21.672Z,14.75
2022-12-03T08:47:50.026Z,11.70
2022-12-03T08:50:28.668Z,10.75
2022-12-03T08:53:09.795Z,13.32
2022-12-03T08:55:46.570Z,12.98
2022-12-03T08:58:23.243Z,12.15
2022-12-03T09:00:58.026Z,11.57
2022-12-03T09:03:27.548Z,10.57
2022-12-03T09:05:55.957Z,11.63
2022-12-03T09:08:24.295Z,13.70
2022-12-03T09:10:54.073Z,11.40
2022-12-03T09:13:22.461Z,12.50
2022-12-03T09:15:50.817Z,14.82
2022-12-03T09:18:19.258Z,12.68
2022-12-03T09:20:47.654Z,12.50
2022-12-03T09:23:16.000Z,11.18
2022-12-03T09:25:44.429Z,12.35
2022-12-03T09:28:14.170Z,11.75
2022-12-03T09:30:42.776Z,12.20
2022-12-03T09:33:11.159Z,14.00
2022-12-03T09:35:39.550Z,11.48
2022-12-03T09:38:08.031Z,11.65
2022-12-03T09:40:36.538Z,13.10
2022-12-03T09:43:05.628Z,9.52
2022-12-03T09:45:35.673Z,10.88
2022-12-03T09:48:04.845Z,10.18
2022-12-03T09:50:34.019Z,12.68
2022-12-03T09:53:04.718Z,12.38
2022-12-03T09:55:33.678Z,11.48
2022-12-03T09:58:02.128Z,11.48
2022-12-03T10:00:31.833Z,12.95
2022-12-03T10:03:07.301Z,12.85
2022-12-03T10:05:36.360Z,9.88
2022-12-03T10:08:08.471Z,12.63
2022-12-03T10:10:37.664Z,9.15
2022-12-03T10:13:07.030Z,11.70
2022-12-03T10:15:35.536Z,11.25
2022-12-03T10:18:23.661Z,9.40
2022-12-03T10:20:53.766Z,11.50
2022-12-03T10:23:24.651Z,10.85
2022-12-03T10:25:56.236Z,13.02
2022-12-03T10:28:34.739Z,20.73
2022-12-03T10:31:05.929Z,13.43
2022-12-03T10:33:37.934Z,9.82
2022-12-03T10:36:23.329Z,10.13
2022-12-03T10:39:15.659Z,15.35
2022-12-03T10:41:45.874Z,14.10
2022-12-03T10:44:20.022Z,10.15
2022-12-03T10:47:06.900Z,15.35
2022-12-03T10:49:37.176Z,11.40
2022-12-03T10:52:06.404Z,11.73
2022-12-03T10:54:36.495Z,13.07
2022-12-03T10:57:05.051Z,13.18
2022-12-03T10:59:35.263Z,11.43
2022-12-03T11:02:09.239Z,9.82
2022-12-03T11:04:39.024Z,9.90
2022-12-03T11:07:15.826Z,11.57
2022-12-03T11:09:46.604Z,12.50
2022-12-03T11:12:21.803Z,13.90
2022-12-03T11:15:08.879Z,13.55
2022-12-03T11:17:48.184Z,13.90
2022-12-03T11:21:11.321Z,15.25
2022-12-03T11:24:28.757Z,18.05
2022-12-03T11:27:27.204Z,17.23
2022-12-03T11:30:01.266Z,16.25
2022-12-03T11:33:22.784Z,16.33
2022-12-03T11:36:31.769Z,21.20
2022-12-03T11:39:10.222Z,18.13
2022-12-03T11:41:38.593Z,19.88
2022-12-03T11:44:33.736Z,20.70
2022-12-03T11:47:15.177Z,18.90
2022-12-03T11:49:50.036Z,17.92
2022-12-03T11:52:30.199Z,19.10
2022-12-03T11:55:04.414Z,17.80
2022-12-03T11:57:38.171Z,22.02
2022-12-03T12:00:21.994Z,22.08
2022-12-03T12:02:51.745Z,27.55
2022-12-03T12:05:28.744Z,21.92
2022-12-03T12:07:58.737Z,16.92
2022-12-03T12:10:45.561Z,16.73
2022-12-03T12:13:54.662Z,18.73
2022-12-03T12:16:51.451Z,15.68
2022-12-03T12:19:32.769Z,17.38
2022-12-03T12:22:30.611Z,19.48
2022-12-03T12:25:02.399Z,22.48
2022-12-03T12:27:39.423Z,21.00
2022-12-03T12:30:14.056Z,17.27
2022-12-03T12:32:47.370Z,19.85
2022-12-03T12:35:20.630Z,14.00
2022-12-03T12:37:58.935Z,16.55
2022-12-03T12:40:34.069Z,15.40
2022-12-03T12:43:11.799Z,17.58
2022-12-03T12:45:44.304Z,19.33
2022-12-03T12:48:22.761Z,17.85
2022-12-03T12:50:58.413Z,18.35
2022-12-03T12:53:29.611Z,22.35
2022-12-03T12:56:01.826Z,16.88
2022-12-03T12:58:34.113Z,16.23
2022-12-03T13:01:08.812Z,14.02
2022-12-03T13:03:40.657Z,25.20
2022-12-03T13:06:16.758Z,16.48
2022-12-03T13:08:49.833Z,18.60
2022-12-03T13:11:37.072Z,18.90
2022-12-03T13:14:17.337Z,16.85
2022-12-03T13:16:45.965Z,23.83
2022-12-03T13:19:23.756Z,18.15
2022-12-03T13:21:53.955Z,16.98
2022-12-03T13:24:33.935Z,17.58
2022-12-03T13:27:22.989Z,18.83
2022-12-03T13:29:56.724Z,24.25
2022-12-03T13:32:31.024Z,25.83
2022-12-03T13:35:07.593Z,29.45
2022-12-03T13:37:36.026Z,19.58
2022-12-03T13:40:21.198Z,22.27
2022-12-03T13:42:52.618Z,21.60
2022-12-03T13:45:35.139Z,17.58
2022-12-03T13:48:07.947Z,23.27
2022-12-03T13:50:38.622Z,21.13
2022-12-03T13:53:20.707Z,26.65
2022-12-03T13:55:51.724Z,22.73
2022-12-03T13:58:21.490Z,22.33
2022-12-03T14:00:49.980Z,20.58
2022-12-03T14:03:18.783Z,22.10
2022-12-03T14:05:47.155Z,23.13
2022-12-03T14:08:15.577Z,16.95
2022-12-03T14:10:44.101Z,16.67
2022-12-03T14:13:12.476Z,18.63
2022-12-03T14:15:42.224Z,22.52
2022-12-03T14:18:10.634Z,23.85
2022-12-03T14:20:38.988Z,21.90
2022-12-03T14:23:07.389Z,19.17
2022-12-03T14:25:35.807Z,22.98
2022-12-03T14:28:08.615Z,19.58
2022-12-03T14:30:37.208Z,24.77
2022-12-03T14:33:07.017Z,21.75
2022-12-03T14:35:35.468Z,24.15
2022-12-03T14:38:03.843Z,24.90
2022-12-03T14:40:32.372Z,21.73
2022-12-03T14:43:00.785Z,28.42
2022-12-03T14:45:30.195Z,25.55
2022-12-03T14:47:58.600Z,20.13
2022-12-03T14:50:28.383Z,24.48
2022-12-03T14:52:56.852Z,31.02
2022-12-03T14:55:25.216Z,23.23
2022-12-03T14:57:53.611Z,34.97
2022-12-03T15:00:22.947Z,34.22
2022-12-03T15:02:51.495Z,26.75
2022-12-03T15:05:28.038Z,29.38
2022-12-03T15:07:58.563Z,27.88
2022-12-03T15:10:27.297Z,24.00
2022-12-03T15:12:55.730Z,21.92
2022-12-03T15:15:24.146Z,23.55
2022-12-03T15:17:52.523Z,26.40
2022-12-03T15:20:20.889Z,27.15
2022-12-03T15:22:49.608Z,28.08
2022-12-03T15:25:24.442Z,22.52
2022-12-03T15:27:53.227Z,22.65
2022-12-03T15:30:21.755Z,24.02
2022-12-03T15:32:50.601Z,22.45
2022-12-03T15:35:19.374Z,26.60
2022-12-03T15:37:47.862Z,24.75
2022-12-03T15:40:19.258Z,19.50
2022-12-03T15:42:47.742Z,22.00
2022-12-03T15:45:16.265Z,28.35
2022-12-03T15:47:45.233Z,22.40
2022-12-03T15:50:14.811Z,23.33
2022-12-03T15:52:44.698Z,24.63
2022-12-03T15:55:14.288Z,46.60
2022-12-03T15:57:44.670Z,23.65
2022-12-03T16:00:16.069Z,20.27
2022-12-03T16:02:52.221Z,18.73
2022-12-03T16:05:22.723Z,26.15
2022-12-03T16:07:51.756Z,23.65
2022-12-03T16:10:21.968Z,18.35
2022-12-03T16:12:52.662Z,22.13
2022-12-03T16:15:26.664Z,20.85
2022-12-03T16:17:56.090Z,20.88
2022-12-03T16:20:24.493Z,24.52
2022-12-03T16:22:53.302Z,19.75
2022-12-03T16:25:22.071Z,25.80
2022-12-03T16:27:53.707Z,26.27
2022-12-03T16:30:22.570Z,23.52
2022-12-03T16:32:51.222Z,20.75
2022-12-03T16:35:21.548Z,26.15
2022-12-03T16:37:50.598Z,22.90
2022-12-03T16:40:19.671Z,16.83
2022-12-03T16:42:49.142Z,27.02
2022-12-03T16:45:51.603Z,22.88
2022-12-03T16:48:21.276Z,21.92
2022-12-03T16:50:50.050Z,23.75
2022-12-03T16:53:18.824Z,24.25
2022-12-03T16:55:48.141Z,24.33
2022-12-03T16:58:18.886Z,20.52
2022-12-03T17:00:49.575Z,21.42
2022-12-03T17:03:19.118Z,20.05
2022-12-03T17:05:49.319Z,31.45
2022-12-03T17:08:19.372Z,23.75
2022-12-03T17:10:48.308Z,23.33
2022-12-03T17:13:17.454Z,19.25
2022-12-03T17:15:46.473Z,18.23
2022-12-03T17:18:17.142Z,20.13
2022-12-03T17:20:46.327Z,25.25
2022-12-03T17:23:14.903Z,21.58
2022-12-03T17:25:45.710Z,20.27
2022-12-03T17:28:15.368Z,27.27
2022-12-03T17:30:44.342Z,28.90
2022-12-03T17:33:14.935Z,22.58
2022-12-03T17:35:46.249Z,19.88
2022-12-03T17:38:15.954Z,22.60
2022-12-03T17:40:45.239Z,25.92
2022-12-03T17:43:13.637Z,21.23
2022-12-03T17:45:43.725Z,23.23
2022-12-03T17:48:13.179Z,31.95
2022-12-03T17:50:42.853Z,31.50
2022-12-03T17:53:13.212Z,23.90
2022-12-03T17:55:44.984Z,25.95
2022-12-03T17:58:14.590Z,33.80
2022-12-03T18:00:44.535Z,25.35
2022-12-03T18:03:13.683Z,23.48
2022-12-03T18:05:42.417Z,25.55
2022-12-03T18:08:12.227Z,23.65
2022-12-03T18:10:41.250Z,22.38
2022-12-03T18:13:10.222Z,23.80
2022-12-03T18:15:39.408Z,23.00
2022-12-03T18:18:08.676Z,27.80
2022-12-03T18:20:37.650Z,22.98
2022-12-03T18:23:07.224Z,22.33
2022-12-03T18:25:38.726Z,24.90
2022-12-03T18:28:07.954Z,25.30
2022-12-03T18:30:37.804Z,28.23
2022-12-03T18:33:08.815Z,23.98
2022-12-03T18:35:38.737Z,20.83
2022-12-03T18:38:07.929Z,21.98
2022-12-03T18:40:41.307Z,21.15
2022-12-03T18:43:14.979Z,22.73
2022-12-03T18:45:44.953Z,21.58
2022-12-03T18:48:20.648Z,24.60
2022-12-03T18:50:50.034Z,24.52
2022-12-03T18:53:20.734Z,16.02
2022-12-03T18:55:51.901Z,23.23
2022-12-03T18:58:21.453Z,20.48
2022-12-03T19:00:51.164Z,17.02
2022-12-03T19:03:21.027Z,19.35
2022-12-03T19:05:50.585Z,25.50
2022-12-03T19:08:19.521Z,25.27
2022-12-03T19:10:59.903Z,25.50
2022-12-03T19:13:30.133Z,23.23
2022-12-03T19:16:03.106Z,19.95
2022-12-03T19:18:34.297Z,19.35
2022-12-03T19:21:10.894Z,19.98
2022-12-03T19:23:47.308Z,21.10
2022-12-03T19:26:30.792Z,21.60
2022-12-03T19:29:01.277Z,19.90
2022-12-03T19:31:33.725Z,25.42
2022-12-03T19:34:04.653Z,20.45
2022-12-03T19:36:36.294Z,18.35
2022-12-03T19:39:05.905Z,21.80
2022-12-03T19:41:38.715Z,18.70
2022-12-03T19:44:11.127Z,23.80
2022-12-03T19:46:41.080Z,20.55
2022-12-03T19:49:11.792Z,18.20
2022-12-03T19:51:41.850Z,26.60
2022-12-03T19:54:15.327Z,26.23
2022-12-03T19:56:47.833Z,26.13
2022-12-03T19:59:19.870Z,21.63
2022-12-03T20:01:52.130Z,22.42
2022-12-03T20:04:22.541Z,22.27
2022-12-03T20:06:51.935Z,25.58
2022-12-03T20:09:23.048Z,30.52
2022-12-03T20:11:54.759Z,22.40
2022-12-03T20:14:25.229Z,22.45
2022-12-03T20:16:55.074Z,27.38
2022-12-03T20:19:24.939Z,25.38
2022-12-03T20:22:00.705Z,29.08
2022-12-03T20:24:33.772Z,28.52
2022-12-03T20:27:06.687Z,33.08
2022-12-03T20:29:37.300Z,23.92
2022-12-03T20:32:08.566Z,29.92
2022-12-03T20:34:39.212Z,27.77
2022-12-03T20:37:10.009Z,24.60
2022-12-03T20:39:40.160Z,24.58
2022-12-03T20:42:12.501Z,21.00
2022-12-03T20:44:42.274Z,34.40
2022-12-03T20:47:16.639Z,21.80
2022-12-03T20:49:45.865Z,20.17
2022-12-03T20:52:15.933Z,27.08
2022-12-03T20:54:46.592Z,24.95
2022-12-03T20:57:20.093Z,28.38
2022-12-03T20:59:49.012Z,28.35
2022-12-03T21:02:19.062Z,25.77
2022-12-03T21:04:48.523Z,25.48
2022-12-03T21:07:20.058Z,25.20
2022-12-03T21:09:49.002Z,24.48
2022-12-03T21:12:20.566Z,27.13
2022-12-03T21:14:50.209Z,26.77
2022-12-03T21:17:21.094Z,27.48
2022-12-03T21:19:50.992Z,24.20
2022-12-03T21:22:20.126Z,25.10
2022-12-03T21:24:49.633Z,27.10
2022-12-03T21:27:21.745Z,24.42
2022-12-03T21:29:51.908Z,24.08
2022-12-03T21:32:21.007Z,22.17
2022-12-03T21:34:49.582Z,27.83
2022-12-03T21:37:18.587Z,28.38
2022-12-03T21:39:47.205Z,19.48
2022-12-03T21:42:18.775Z,21.45
2022-12-03T21:45:06.963Z,23.58
2022-12-03T21:47:37.496Z,24.23
2022-12-03T21:50:09.816Z,21.80
2022-12-03T21:52:39.835Z,31.48
2022-12-03T21:55:09.443Z,26.88
2022-12-03T21:57:38.394Z,23.73
2022-12-03T22:00:12.215Z,25.35
2022-12-03T22:02:41.841Z,25.52
2022-12-03T22:05:12.402Z,24.25
2022-12-03T22:07:43.557Z,22.50
2022-12-03T22:10:13.740Z,20.52
2022-12-03T22:12:42.296Z,22.50
2022-12-03T22:15:18.459Z,22.02
2022-12-03T22:17:47.745Z,19.67
2022-12-03T22:20:16.475Z,23.65
2022-12-03T22:22:44.879Z,25.40
2022-12-03T22:25:13.388Z,51.17
2022-12-03T22:27:41.788Z,28.13
2022-12-03T22:30:12.597Z,19.80
2022-12-03T22:32:41.018Z,21.05
2022-12-03T22:35:10.521Z,20.65
2022-12-03T22:37:38.887Z,24.65
2022-12-03T22:40:09.028Z,24.77
2022-12-03T22:42:37.413Z,27.42
2022-12-03T22:45:07.435Z,21.35
2022-12-03T22:47:37.152Z,26.55
2022-12-03T22:50:06.726Z,26.30
2022-12-03T22:52:35.104Z,25.95
2022-12-03T22:55:03.491Z,28.17
2022-12-03T22:57:32.605Z,24.52
2022-12-03T23:00:01.000Z,23.15
2022-12-03T23:02:29.463Z,26.95
2022-12-03T23:04:59.237Z,26.65
2022-12-03T23:07:27.711Z,21.85
2022-12-03T23:09:56.383Z,33.97
2022-12-03T23:12:24.892Z,25.95
2022-12-03T23:14:55.189Z,31.42
2022-12-03T23:17:23.600Z,28.25
2022-12-03T23:19:52.089Z,24.13
2022-12-03T23:22:22.078Z,23.50
2022-12-03T23:24:50.446Z,25.90
2022-12-03T23:27:18.848Z,21.52
2022-12-03T23:29:47.224Z,21.75
2022-12-03T23:32:15.695Z,21.67
2022-12-03T23:34:44.191Z,24.15
2022-12-03T23:37:12.614Z,21.58
2022-12-03T23:39:42.524Z,24.45
2022-12-03T23:42:11.007Z,22.10
2022-12-03T23:44:39.384Z,26.60
2022-12-03T23:47:07.749Z,28.38
2022-12-03T23:49:36.315Z,24.73
2022-12-03T23:52:05.168Z,28.38
2022-12-03T23:54:33.572Z,22.05
2022-12-03T23:57:03.389Z,25.42
2022-12-03T23:59:32.120Z,26.05
